Aérodrome :
LOGIN :

S'inscrire | Disclaimer

   EN    FR    IT 

 










Légende :    VFR   VFR Marginal   IFR   IFR Intensif   IFR Très Intensif
Visi : 
Plafond : 
>= 8 km
>= 3000ft
5 à 8 km
1000 à 3000 ft
1500m à 5 km
500 à 1000 ft
800 à 1500m
200 à 500 ft
< 800m
< 200 ft
Symboles :   Orages  Brouillard  Fortes neiges  Fortes précipitations  Vent > 20 kt
SIGMETs :   Divers  Orages  Givrage  Turbulence  Onde Orograph.  Cendres Volcan.







- Altitude de l'aérodrome : 1416 ft
- Code IATA : ZRH


LSZH - Zurich

DERNIER METAR :
  • 271320Z VRB03KT CAVOK 28/12 Q1019 NOSIG

METARs EXPIRÉS :
  • 271250Z 06003KT 350V150 CAVOK 27/10 Q1019 NOSIG
  • 271220Z 35004KT 300V030 CAVOK 26/12 Q1019 NOSIG
  • 271150Z VRB03KT CAVOK 27/13 Q1020 NOSIG
  • 271120Z VRB04KT CAVOK 25/13 Q1020 NOSIG
  • 271050Z 03003KT 310V100 CAVOK 25/13 Q1020 NOSIG

TAF TAF LSZH
Valide du 27 à 12h jusqu'au 28 à 18h UTC


271125Z 2712/2818 VRB03KT CAVOK TX29/2715Z TN11/2804Z TX31/2815Z
PROB30
TEMPO 2713/2717 9999 FEW070
BECMG 2813/2815 9999 FEW060
PROB40 2815/2818 FEW060TCU
ATIS : +41 43 816 2295 (DEP) +41 43 816 2294 (ARR)
Pas de NOTAMs connus pour ce terrain.



MET'MAP, la Météo Aéronautique d'un coup d'oeil ! - Copyright ORBIFLY Décembre 2007 - Disclaimer

ORBIFLY MET'MAP TEAM :

Programmation & Développement : Alexandra Zaïnal
Conception & Développement : Baudouin d'Aumeries
Co-Programmation & Développement : Marc-Olivier Méhu
Soutien technique & logistique : Manuel Goepfert

Contact : metmap@orbifly.com




SOURCES & CREDITS :

   NOAA